sensor_id;sensor_type;location;lat;lon;timestamp;P1;durP1;ratioP1;P2;durP2;ratioP2
51124;SDS011;37163;55.556;39.108;2022-08-25T00:01:50;26.80;;;22.55;;
51124;SDS011;37163;55.556;39.108;2022-08-25T00:04:19;28.83;;;22.88;;
51124;SDS011;37163;55.556;39.108;2022-08-25T00:06:45;38.65;;;22.58;;
51124;SDS011;37163;55.556;39.108;2022-08-25T00:09:14;28.30;;;21.52;;
51124;SDS011;37163;55.556;39.108;2022-08-25T00:11:43;29.95;;;22.70;;
51124;SDS011;37163;55.556;39.108;2022-08-25T00:14:11;27.25;;;20.80;;
51124;SDS011;37163;55.556;39.108;2022-08-25T00:16:40;27.63;;;20.75;;
51124;SDS011;37163;55.556;39.108;2022-08-25T00:19:09;28.73;;;21.10;;
51124;SDS011;37163;55.556;39.108;2022-08-25T00:21:39;28.73;;;20.00;;
51124;SDS011;37163;55.556;39.108;2022-08-25T00:24:06;24.15;;;19.48;;
51124;SDS011;37163;55.556;39.108;2022-08-25T00:26:33;28.55;;;21.08;;
51124;SDS011;37163;55.556;39.108;2022-08-25T00:29:00;27.83;;;20.30;;
51124;SDS011;37163;55.556;39.108;2022-08-25T00:31:26;30.63;;;22.33;;
51124;SDS011;37163;55.556;39.108;2022-08-25T00:33:52;28.88;;;21.10;;
51124;SDS011;37163;55.556;39.108;2022-08-25T00:36:19;83.75;;;61.55;;
51124;SDS011;37163;55.556;39.108;2022-08-25T00:38:46;34.15;;;24.45;;
51124;SDS011;37163;55.556;39.108;2022-08-25T00:41:17;28.58;;;21.50;;
51124;SDS011;37163;55.556;39.108;2022-08-25T00:43:48;31.98;;;24.65;;
51124;SDS011;37163;55.556;39.108;2022-08-25T00:46:26;34.72;;;24.70;;
51124;SDS011;37163;55.556;39.108;2022-08-25T00:49:02;32.50;;;24.15;;
51124;SDS011;37163;55.556;39.108;2022-08-25T00:51:50;33.33;;;25.75;;
51124;SDS011;37163;55.556;39.108;2022-08-25T00:54:21;42.50;;;26.65;;
51124;SDS011;37163;55.556;39.108;2022-08-25T00:56:50;39.05;;;27.90;;
51124;SDS011;37163;55.556;39.108;2022-08-25T00:59:20;32.10;;;26.25;;
51124;SDS011;37163;55.556;39.108;2022-08-25T01:01:48;38.33;;;27.42;;
51124;SDS011;37163;55.556;39.108;2022-08-25T01:04:16;35.15;;;26.65;;
51124;SDS011;37163;55.556;39.108;2022-08-25T01:06:43;34.90;;;26.70;;
51124;SDS011;37163;55.556;39.108;2022-08-25T01:09:11;35.25;;;24.90;;
51124;SDS011;37163;55.556;39.108;2022-08-25T01:11:41;32.03;;;24.42;;
51124;SDS011;37163;55.556;39.108;2022-08-25T01:14:09;34.17;;;25.25;;
51124;SDS011;37163;55.556;39.108;2022-08-25T01:16:37;33.38;;;24.35;;
51124;SDS011;37163;55.556;39.108;2022-08-25T01:19:04;30.65;;;23.30;;
51124;SDS011;37163;55.556;39.108;2022-08-25T01:21:36;30.92;;;23.60;;
51124;SDS011;37163;55.556;39.108;2022-08-25T01:24:05;28.23;;;22.45;;
51124;SDS011;37163;55.556;39.108;2022-08-25T01:26:33;28.90;;;22.63;;
51124;SDS011;37163;55.556;39.108;2022-08-25T01:29:01;31.85;;;21.80;;
51124;SDS011;37163;55.556;39.108;2022-08-25T01:31:54;25.23;;;19.98;;
51124;SDS011;37163;55.556;39.108;2022-08-25T01:34:24;26.42;;;20.55;;
51124;SDS011;37163;55.556;39.108;2022-08-25T01:36:53;29.85;;;21.50;;
51124;SDS011;37163;55.556;39.108;2022-08-25T01:39:20;30.20;;;22.30;;
51124;SDS011;37163;55.556;39.108;2022-08-25T01:44:15;33.63;;;22.20;;
51124;SDS011;37163;55.556;39.108;2022-08-25T01:46:42;28.92;;;22.02;;
51124;SDS011;37163;55.556;39.108;2022-08-25T01:49:09;31.67;;;22.52;;
51124;SDS011;37163;55.556;39.108;2022-08-25T01:51:41;27.90;;;21.80;;
51124;SDS011;37163;55.556;39.108;2022-08-25T01:54:28;30.52;;;23.60;;
51124;SDS011;37163;55.556;39.108;2022-08-25T01:56:56;27.10;;;21.65;;
51124;SDS011;37163;55.556;39.108;2022-08-25T01:59:23;29.10;;;22.23;;
51124;SDS011;37163;55.556;39.108;2022-08-25T02:01:50;32.17;;;24.48;;
51124;SDS011;37163;55.556;39.108;2022-08-25T02:04:17;30.45;;;23.52;;
51124;SDS011;37163;55.556;39.108;2022-08-25T02:07:03;30.50;;;22.10;;
51124;SDS011;37163;55.556;39.108;2022-08-25T02:09:30;28.23;;;21.20;;
51124;SDS011;37163;55.556;39.108;2022-08-25T02:11:57;26.33;;;20.45;;
51124;SDS011;37163;55.556;39.108;2022-08-25T02:14:24;27.20;;;20.75;;
51124;SDS011;37163;55.556;39.108;2022-08-25T02:16:51;27.40;;;20.75;;
51124;SDS011;37163;55.556;39.108;2022-08-25T02:19:19;27.65;;;21.02;;
51124;SDS011;37163;55.556;39.108;2022-08-25T02:21:46;27.08;;;19.75;;
51124;SDS011;37163;55.556;39.108;2022-08-25T02:24:13;27.35;;;20.80;;
51124;SDS011;37163;55.556;39.108;2022-08-25T02:26:39;26.40;;;19.77;;
51124;SDS011;37163;55.556;39.108;2022-08-25T02:29:06;30.13;;;22.55;;
51124;SDS011;37163;55.556;39.108;2022-08-25T02:31:33;29.00;;;22.00;;
51124;SDS011;37163;55.556;39.108;2022-08-25T02:34:00;30.52;;;21.95;;
51124;SDS011;37163;55.556;39.108;2022-08-25T02:36:27;27.83;;;21.65;;
51124;SDS011;37163;55.556;39.108;2022-08-25T02:38:54;34.90;;;25.05;;
51124;SDS011;37163;55.556;39.108;2022-08-25T02:41:21;31.48;;;24.63;;
51124;SDS011;37163;55.556;39.108;2022-08-25T02:43:48;36.35;;;26.67;;
51124;SDS011;37163;55.556;39.108;2022-08-25T02:46:17;32.33;;;25.75;;
51124;SDS011;37163;55.556;39.108;2022-08-25T02:48:44;41.83;;;32.55;;
51124;SDS011;37163;55.556;39.108;2022-08-25T02:51:11;44.22;;;31.70;;
51124;SDS011;37163;55.556;39.108;2022-08-25T02:53:38;48.10;;;35.13;;
51124;SDS011;37163;55.556;39.108;2022-08-25T02:56:06;49.55;;;36.67;;
51124;SDS011;37163;55.556;39.108;2022-08-25T02:58:34;48.88;;;34.28;;
51124;SDS011;37163;55.556;39.108;2022-08-25T03:01:02;46.65;;;33.90;;
51124;SDS011;37163;55.556;39.108;2022-08-25T03:03:28;43.17;;;33.72;;
51124;SDS011;37163;55.556;39.108;2022-08-25T03:05:55;45.75;;;33.63;;
51124;SDS011;37163;55.556;39.108;2022-08-25T03:08:22;53.20;;;37.50;;
51124;SDS011;37163;55.556;39.108;2022-08-25T03:10:49;62.78;;;45.50;;
51124;SDS011;37163;55.556;39.108;2022-08-25T03:13:16;63.50;;;46.97;;
51124;SDS011;37163;55.556;39.108;2022-08-25T03:16:01;67.28;;;49.80;;
51124;SDS011;37163;55.556;39.108;2022-08-25T03:18:29;68.32;;;50.65;;
51124;SDS011;37163;55.556;39.108;2022-08-25T03:20:55;68.50;;;48.80;;
51124;SDS011;37163;55.556;39.108;2022-08-25T03:23:22;73.68;;;51.00;;
51124;SDS011;37163;55.556;39.108;2022-08-25T03:25:49;72.70;;;50.45;;
51124;SDS011;37163;55.556;39.108;2022-08-25T03:28:34;65.07;;;48.35;;
51124;SDS011;37163;55.556;39.108;2022-08-25T03:31:01;68.93;;;48.13;;
51124;SDS011;37163;55.556;39.108;2022-08-25T03:33:28;72.15;;;49.92;;
51124;SDS011;37163;55.556;39.108;2022-08-25T03:35:55;80.22;;;55.95;;
51124;SDS011;37163;55.556;39.108;2022-08-25T03:38:22;79.82;;;54.95;;
51124;SDS011;37163;55.556;39.108;2022-08-25T03:40:50;89.97;;;65.95;;
51124;SDS011;37163;55.556;39.108;2022-08-25T03:43:17;94.13;;;67.38;;
51124;SDS011;37163;55.556;39.108;2022-08-25T03:45:44;92.53;;;64.85;;
51124;SDS011;37163;55.556;39.108;2022-08-25T03:48:11;91.43;;;63.38;;
51124;SDS011;37163;55.556;39.108;2022-08-25T03:50:48;85.53;;;61.53;;
51124;SDS011;37163;55.556;39.108;2022-08-25T03:53:15;79.47;;;59.70;;
51124;SDS011;37163;55.556;39.108;2022-08-25T03:55:42;75.72;;;56.83;;
51124;SDS011;37163;55.556;39.108;2022-08-25T03:58:08;72.47;;;55.05;;
51124;SDS011;37163;55.556;39.108;2022-08-25T04:00:35;84.07;;;59.45;;
51124;SDS011;37163;55.556;39.108;2022-08-25T04:03:02;82.20;;;61.30;;
51124;SDS011;37163;55.556;39.108;2022-08-25T04:05:28;78.30;;;56.95;;
51124;SDS011;37163;55.556;39.108;2022-08-25T04:07:55;86.13;;;65.60;;
51124;SDS011;37163;55.556;39.108;2022-08-25T04:10:21;89.35;;;62.92;;
51124;SDS011;37163;55.556;39.108;2022-08-25T04:12:48;87.75;;;64.07;;
51124;SDS011;37163;55.556;39.108;2022-08-25T04:15:14;91.97;;;63.33;;
51124;SDS011;37163;55.556;39.108;2022-08-25T04:17:40;93.18;;;61.35;;
51124;SDS011;37163;55.556;39.108;2022-08-25T04:20:07;78.13;;;56.13;;
51124;SDS011;37163;55.556;39.108;2022-08-25T04:22:35;74.40;;;54.55;;
51124;SDS011;37163;55.556;39.108;2022-08-25T04:25:03;104.72;;;72.95;;
51124;SDS011;37163;55.556;39.108;2022-08-25T04:27:31;129.60;;;91.28;;
51124;SDS011;37163;55.556;39.108;2022-08-25T04:29:57;148.18;;;101.60;;
51124;SDS011;37163;55.556;39.108;2022-08-25T04:32:23;170.52;;;119.97;;
51124;SDS011;37163;55.556;39.108;2022-08-25T04:34:50;167.38;;;120.97;;
51124;SDS011;37163;55.556;39.108;2022-08-25T04:37:17;189.90;;;134.57;;
51124;SDS011;37163;55.556;39.108;2022-08-25T04:39:43;188.95;;;130.52;;
51124;SDS011;37163;55.556;39.108;2022-08-25T04:42:25;198.18;;;140.45;;
51124;SDS011;37163;55.556;39.108;2022-08-25T04:45:10;208.18;;;150.20;;
51124;SDS011;37163;55.556;39.108;2022-08-25T04:47:37;220.57;;;157.38;;
51124;SDS011;37163;55.556;39.108;2022-08-25T04:50:05;228.00;;;162.07;;
51124;SDS011;37163;55.556;39.108;2022-08-25T04:52:32;235.15;;;167.63;;
51124;SDS011;37163;55.556;39.108;2022-08-25T04:54:59;233.68;;;166.73;;
51124;SDS011;37163;55.556;39.108;2022-08-25T04:57:25;239.40;;;168.90;;
51124;SDS011;37163;55.556;39.108;2022-08-25T04:59:52;251.02;;;176.55;;
51124;SDS011;37163;55.556;39.108;2022-08-25T05:02:20;246.75;;;173.73;;
51124;SDS011;37163;55.556;39.108;2022-08-25T05:04:47;274.02;;;190.65;;
51124;SDS011;37163;55.556;39.108;2022-08-25T05:07:13;294.67;;;205.90;;
51124;SDS011;37163;55.556;39.108;2022-08-25T05:09:40;288.95;;;206.77;;
51124;SDS011;37163;55.556;39.108;2022-08-25T05:12:06;297.90;;;210.23;;
51124;SDS011;37163;55.556;39.108;2022-08-25T05:14:33;293.88;;;210.00;;
51124;SDS011;37163;55.556;39.108;2022-08-25T05:17:18;301.05;;;216.63;;
51124;SDS011;37163;55.556;39.108;2022-08-25T05:19:45;308.90;;;213.65;;
51124;SDS011;37163;55.556;39.108;2022-08-25T05:22:11;317.20;;;223.10;;
51124;SDS011;37163;55.556;39.108;2022-08-25T05:24:38;298.52;;;214.52;;
51124;SDS011;37163;55.556;39.108;2022-08-25T05:27:04;289.10;;;197.98;;
51124;SDS011;37163;55.556;39.108;2022-08-25T05:29:31;274.30;;;192.82;;
51124;SDS011;37163;55.556;39.108;2022-08-25T05:31:57;277.52;;;197.70;;
51124;SDS011;37163;55.556;39.108;2022-08-25T05:34:23;287.42;;;200.48;;
51124;SDS011;37163;55.556;39.108;2022-08-25T05:36:50;285.58;;;200.05;;
51124;SDS011;37163;55.556;39.108;2022-08-25T05:39:17;278.52;;;195.82;;
51124;SDS011;37163;55.556;39.108;2022-08-25T05:41:44;266.45;;;193.13;;
51124;SDS011;37163;55.556;39.108;2022-08-25T05:44:10;272.75;;;194.02;;
51124;SDS011;37163;55.556;39.108;2022-08-25T05:46:37;262.70;;;185.40;;
51124;SDS011;37163;55.556;39.108;2022-08-25T05:49:04;254.65;;;187.07;;
51124;SDS011;37163;55.556;39.108;2022-08-25T05:51:31;259.50;;;190.07;;
51124;SDS011;37163;55.556;39.108;2022-08-25T05:53:58;229.25;;;168.60;;
51124;SDS011;37163;55.556;39.108;2022-08-25T05:56:25;218.57;;;159.90;;
51124;SDS011;37163;55.556;39.108;2022-08-25T05:58:51;221.10;;;162.73;;
51124;SDS011;37163;55.556;39.108;2022-08-25T06:01:25;228.98;;;167.48;;
51124;SDS011;37163;55.556;39.108;2022-08-25T06:04:28;193.32;;;142.82;;
51124;SDS011;37163;55.556;39.108;2022-08-25T06:06:55;191.15;;;137.82;;
51124;SDS011;37163;55.556;39.108;2022-08-25T06:09:22;177.20;;;127.03;;
51124;SDS011;37163;55.556;39.108;2022-08-25T06:11:48;174.40;;;126.97;;
51124;SDS011;37163;55.556;39.108;2022-08-25T06:14:15;185.90;;;137.52;;
51124;SDS011;37163;55.556;39.108;2022-08-25T06:16:42;244.40;;;182.02;;
51124;SDS011;37163;55.556;39.108;2022-08-25T06:19:08;261.88;;;188.68;;
51124;SDS011;37163;55.556;39.108;2022-08-25T06:21:35;266.77;;;197.60;;
51124;SDS011;37163;55.556;39.108;2022-08-25T06:24:04;276.25;;;200.13;;
51124;SDS011;37163;55.556;39.108;2022-08-25T06:26:30;268.75;;;193.00;;
51124;SDS011;37163;55.556;39.108;2022-08-25T06:28:57;280.77;;;204.07;;
51124;SDS011;37163;55.556;39.108;2022-08-25T06:31:23;275.85;;;199.88;;
51124;SDS011;37163;55.556;39.108;2022-08-25T06:33:49;271.25;;;195.23;;
51124;SDS011;37163;55.556;39.108;2022-08-25T06:36:17;244.27;;;168.65;;
51124;SDS011;37163;55.556;39.108;2022-08-25T06:38:44;214.73;;;152.27;;
51124;SDS011;37163;55.556;39.108;2022-08-25T06:41:11;190.60;;;134.32;;
51124;SDS011;37163;55.556;39.108;2022-08-25T06:43:38;177.98;;;124.47;;
51124;SDS011;37163;55.556;39.108;2022-08-25T06:46:10;171.65;;;121.32;;
51124;SDS011;37163;55.556;39.108;2022-08-25T06:48:38;161.27;;;111.65;;
51124;SDS011;37163;55.556;39.108;2022-08-25T06:51:10;149.90;;;107.88;;
51124;SDS011;37163;55.556;39.108;2022-08-25T06:53:38;141.55;;;101.43;;
51124;SDS011;37163;55.556;39.108;2022-08-25T06:56:04;137.02;;;96.72;;
51124;SDS011;37163;55.556;39.108;2022-08-25T06:58:31;134.75;;;95.47;;
51124;SDS011;37163;55.556;39.108;2022-08-25T07:03:38;119.15;;;83.60;;
51124;SDS011;37163;55.556;39.108;2022-08-25T07:06:04;113.38;;;78.20;;
51124;SDS011;37163;55.556;39.108;2022-08-25T07:08:31;99.55;;;70.03;;
51124;SDS011;37163;55.556;39.108;2022-08-25T07:11:06;87.90;;;62.63;;
51124;SDS011;37163;55.556;39.108;2022-08-25T07:16:01;66.03;;;44.75;;
51124;SDS011;37163;55.556;39.108;2022-08-25T07:18:28;58.45;;;40.15;;
51124;SDS011;37163;55.556;39.108;2022-08-25T07:20:54;50.80;;;36.80;;
51124;SDS011;37163;55.556;39.108;2022-08-25T07:23:21;52.20;;;36.88;;
51124;SDS011;37163;55.556;39.108;2022-08-25T07:25:48;52.38;;;39.92;;
51124;SDS011;37163;55.556;39.108;2022-08-25T07:28:15;56.17;;;39.97;;
51124;SDS011;37163;55.556;39.108;2022-08-25T07:30:42;53.20;;;38.33;;
51124;SDS011;37163;55.556;39.108;2022-08-25T07:33:09;54.58;;;41.38;;
51124;SDS011;37163;55.556;39.108;2022-08-25T07:35:36;52.15;;;37.97;;
51124;SDS011;37163;55.556;39.108;2022-08-25T07:38:04;47.58;;;34.17;;
51124;SDS011;37163;55.556;39.108;2022-08-25T07:40:32;53.83;;;37.60;;
51124;SDS011;37163;55.556;39.108;2022-08-25T07:43:01;51.08;;;37.80;;
51124;SDS011;37163;55.556;39.108;2022-08-25T07:45:30;52.47;;;38.75;;
51124;SDS011;37163;55.556;39.108;2022-08-25T07:47:58;53.00;;;36.17;;
51124;SDS011;37163;55.556;39.108;2022-08-25T07:50:27;58.40;;;40.08;;
51124;SDS011;37163;55.556;39.108;2022-08-25T07:52:54;56.67;;;42.58;;
51124;SDS011;37163;55.556;39.108;2022-08-25T07:55:22;53.47;;;36.33;;
51124;SDS011;37163;55.556;39.108;2022-08-25T07:57:49;48.83;;;34.25;;
51124;SDS011;37163;55.556;39.108;2022-08-25T08:00:17;57.60;;;41.90;;
51124;SDS011;37163;55.556;39.108;2022-08-25T08:02:44;57.78;;;39.83;;
51124;SDS011;37163;55.556;39.108;2022-08-25T08:05:11;47.42;;;35.88;;
51124;SDS011;37163;55.556;39.108;2022-08-25T08:07:37;59.22;;;39.05;;
51124;SDS011;37163;55.556;39.108;2022-08-25T08:10:05;53.50;;;37.40;;
51124;SDS011;37163;55.556;39.108;2022-08-25T08:12:34;57.90;;;40.65;;
51124;SDS011;37163;55.556;39.108;2022-08-25T08:15:01;67.90;;;48.08;;
51124;SDS011;37163;55.556;39.108;2022-08-25T08:17:29;52.90;;;37.92;;
51124;SDS011;37163;55.556;39.108;2022-08-25T08:19:57;73.25;;;50.63;;
51124;SDS011;37163;55.556;39.108;2022-08-25T08:22:24;81.85;;;55.33;;
51124;SDS011;37163;55.556;39.108;2022-08-25T08:24:50;89.43;;;59.13;;
51124;SDS011;37163;55.556;39.108;2022-08-25T08:27:16;89.85;;;59.90;;
51124;SDS011;37163;55.556;39.108;2022-08-25T08:29:43;102.53;;;69.72;;
51124;SDS011;37163;55.556;39.108;2022-08-25T08:32:12;96.38;;;65.22;;
51124;SDS011;37163;55.556;39.108;2022-08-25T08:34:39;95.85;;;64.03;;
51124;SDS011;37163;55.556;39.108;2022-08-25T08:37:07;104.93;;;70.68;;
51124;SDS011;37163;55.556;39.108;2022-08-25T08:39:34;100.07;;;69.05;;
51124;SDS011;37163;55.556;39.108;2022-08-25T08:47:47;101.32;;;71.65;;
51124;SDS011;37163;55.556;39.108;2022-08-25T08:53:01;107.32;;;74.22;;
51124;SDS011;37163;55.556;39.108;2022-08-25T08:55:56;102.35;;;73.15;;
51124;SDS011;37163;55.556;39.108;2022-08-25T09:01:15;101.78;;;71.25;;
51124;SDS011;37163;55.556;39.108;2022-08-25T09:03:51;130.13;;;89.00;;
51124;SDS011;37163;55.556;39.108;2022-08-25T09:06:42;124.10;;;84.80;;
51124;SDS011;37163;55.556;39.108;2022-08-25T09:09:20;105.32;;;68.25;;
51124;SDS011;37163;55.556;39.108;2022-08-25T09:20:00;106.53;;;71.17;;
51124;SDS011;37163;55.556;39.108;2022-08-25T09:25:56;95.53;;;63.97;;
51124;SDS011;37163;55.556;39.108;2022-08-25T09:31:27;73.07;;;46.60;;
51124;SDS011;37163;55.556;39.108;2022-08-25T09:34:01;82.00;;;53.47;;
51124;SDS011;37163;55.556;39.108;2022-08-25T09:36:29;81.60;;;52.40;;
51124;SDS011;37163;55.556;39.108;2022-08-25T09:38:57;64.22;;;40.97;;
51124;SDS011;37163;55.556;39.108;2022-08-25T09:41:44;46.30;;;31.05;;
51124;SDS011;37163;55.556;39.108;2022-08-25T09:44:20;37.75;;;23.33;;
51124;SDS011;37163;55.556;39.108;2022-08-25T09:47:32;42.30;;;28.80;;
51124;SDS011;37163;55.556;39.108;2022-08-25T09:52:33;51.08;;;36.03;;
51124;SDS011;37163;55.556;39.108;2022-08-25T09:57:54;68.53;;;47.33;;
51124;SDS011;37163;55.556;39.108;2022-08-25T10:09:06;27.85;;;19.48;;
51124;SDS011;37163;55.556;39.108;2022-08-25T10:11:16;23.10;;;15.90;;
51124;SDS011;37163;55.556;39.108;2022-08-25T10:14:14;29.42;;;19.25;;
51124;SDS011;37163;55.556;39.108;2022-08-25T10:16:43;25.85;;;17.38;;
51124;SDS011;37163;55.556;39.108;2022-08-25T10:19:12;30.33;;;21.20;;
51124;SDS011;37163;55.556;39.108;2022-08-25T10:21:40;37.80;;;26.65;;
51124;SDS011;37163;55.556;39.108;2022-08-25T10:24:08;38.88;;;27.50;;
51124;SDS011;37163;55.556;39.108;2022-08-25T10:29:37;38.83;;;26.90;;
51124;SDS011;37163;55.556;39.108;2022-08-25T10:33:12;36.65;;;23.63;;
51124;SDS011;37163;55.556;39.108;2022-08-25T10:35:18;32.03;;;23.10;;
51124;SDS011;37163;55.556;39.108;2022-08-25T10:40:50;34.72;;;23.25;;
51124;SDS011;37163;55.556;39.108;2022-08-25T10:43:31;34.63;;;22.73;;
51124;SDS011;37163;55.556;39.108;2022-08-25T10:49:19;31.42;;;21.52;;
51124;SDS011;37163;55.556;39.108;2022-08-25T11:00:08;40.03;;;25.95;;
51124;SDS011;37163;55.556;39.108;2022-08-25T11:05:29;32.20;;;25.42;;
51124;SDS011;37163;55.556;39.108;2022-08-25T11:08:13;34.47;;;24.33;;
51124;SDS011;37163;55.556;39.108;2022-08-25T11:11:11;34.65;;;23.88;;
51124;SDS011;37163;55.556;39.108;2022-08-25T11:13:47;39.55;;;26.48;;
51124;SDS011;37163;55.556;39.108;2022-08-25T11:16:23;36.92;;;26.73;;
51124;SDS011;37163;55.556;39.108;2022-08-25T11:19:16;40.15;;;27.85;;
51124;SDS011;37163;55.556;39.108;2022-08-25T11:21:51;44.88;;;27.27;;
51124;SDS011;37163;55.556;39.108;2022-08-25T11:24:40;40.10;;;29.15;;
51124;SDS011;37163;55.556;39.108;2022-08-25T11:27:15;39.83;;;27.67;;
51124;SDS011;37163;55.556;39.108;2022-08-25T11:30:13;37.67;;;27.40;;
51124;SDS011;37163;55.556;39.108;2022-08-25T11:32:43;41.80;;;27.80;;
51124;SDS011;37163;55.556;39.108;2022-08-25T11:35:11;39.10;;;27.10;;
51124;SDS011;37163;55.556;39.108;2022-08-25T11:37:52;37.45;;;24.90;;
51124;SDS011;37163;55.556;39.108;2022-08-25T11:40:42;38.75;;;26.35;;
51124;SDS011;37163;55.556;39.108;2022-08-25T11:46:09;35.83;;;25.48;;
51124;SDS011;37163;55.556;39.108;2022-08-25T11:48:41;38.70;;;25.40;;
51124;SDS011;37163;55.556;39.108;2022-08-25T11:51:30;33.63;;;24.05;;
51124;SDS011;37163;55.556;39.108;2022-08-25T11:57:03;31.92;;;23.20;;
51124;SDS011;37163;55.556;39.108;2022-08-25T12:02:29;34.75;;;24.25;;
51124;SDS011;37163;55.556;39.108;2022-08-25T12:05:06;34.78;;;24.27;;
51124;SDS011;37163;55.556;39.108;2022-08-25T12:08:01;32.90;;;23.98;;
51124;SDS011;37163;55.556;39.108;2022-08-25T12:10:52;36.67;;;24.83;;
51124;SDS011;37163;55.556;39.108;2022-08-25T12:16:35;32.92;;;22.73;;
51124;SDS011;37163;55.556;39.108;2022-08-25T12:22:38;32.40;;;22.13;;
51124;SDS011;37163;55.556;39.108;2022-08-25T12:30:14;32.95;;;21.23;;
51124;SDS011;37163;55.556;39.108;2022-08-25T12:32:54;32.58;;;22.08;;
51124;SDS011;37163;55.556;39.108;2022-08-25T12:35:37;30.50;;;21.85;;
51124;SDS011;37163;55.556;39.108;2022-08-25T12:41:27;30.70;;;22.58;;
51124;SDS011;37163;55.556;39.108;2022-08-25T12:44:13;33.72;;;22.98;;
51124;SDS011;37163;55.556;39.108;2022-08-25T12:48:38;37.95;;;25.58;;
51124;SDS011;37163;55.556;39.108;2022-08-25T12:52:53;24.17;;;16.33;;
51124;SDS011;37163;55.556;39.108;2022-08-25T12:55:21;24.60;;;16.30;;
51124;SDS011;37163;55.556;39.108;2022-08-25T12:57:51;23.15;;;16.80;;
51124;SDS011;37163;55.556;39.108;2022-08-25T13:00:27;21.60;;;14.95;;
51124;SDS011;37163;55.556;39.108;2022-08-25T13:05:48;23.50;;;16.80;;
51124;SDS011;37163;55.556;39.108;2022-08-25T13:08:45;21.08;;;15.45;;
51124;SDS011;37163;55.556;39.108;2022-08-25T13:11:26;22.00;;;15.85;;
51124;SDS011;37163;55.556;39.108;2022-08-25T13:14:17;24.33;;;15.48;;
51124;SDS011;37163;55.556;39.108;2022-08-25T13:16:53;20.30;;;15.55;;
51124;SDS011;37163;55.556;39.108;2022-08-25T13:19:20;21.20;;;15.32;;
51124;SDS011;37163;55.556;39.108;2022-08-25T13:21:47;19.33;;;13.25;;
51124;SDS011;37163;55.556;39.108;2022-08-25T13:26:51;21.02;;;15.18;;
51124;SDS011;37163;55.556;39.108;2022-08-25T13:29:27;23.33;;;17.63;;
51124;SDS011;37163;55.556;39.108;2022-08-25T13:31:56;22.58;;;16.13;;
51124;SDS011;37163;55.556;39.108;2022-08-25T13:34:26;21.45;;;14.95;;
51124;SDS011;37163;55.556;39.108;2022-08-25T13:36:55;19.95;;;13.63;;
51124;SDS011;37163;55.556;39.108;2022-08-25T13:39:40;21.02;;;14.63;;
51124;SDS011;37163;55.556;39.108;2022-08-25T13:42:11;18.70;;;14.70;;
51124;SDS011;37163;55.556;39.108;2022-08-25T13:44:40;13.52;;;9.48;;
51124;SDS011;37163;55.556;39.108;2022-08-25T13:47:09;14.88;;;12.02;;
51124;SDS011;37163;55.556;39.108;2022-08-25T13:49:42;16.42;;;11.23;;
51124;SDS011;37163;55.556;39.108;2022-08-25T13:52:23;19.38;;;13.00;;
51124;SDS011;37163;55.556;39.108;2022-08-25T13:54:56;16.00;;;13.05;;
51124;SDS011;37163;55.556;39.108;2022-08-25T13:57:32;20.77;;;14.85;;
51124;SDS011;37163;55.556;39.108;2022-08-25T14:00:00;21.88;;;14.18;;
51124;SDS011;37163;55.556;39.108;2022-08-25T14:02:38;18.17;;;13.32;;
51124;SDS011;37163;55.556;39.108;2022-08-25T14:05:11;20.02;;;14.50;;
51124;SDS011;37163;55.556;39.108;2022-08-25T14:07:38;22.77;;;15.48;;
51124;SDS011;37163;55.556;39.108;2022-08-25T14:10:09;25.88;;;17.73;;
51124;SDS011;37163;55.556;39.108;2022-08-25T14:13:38;21.33;;;15.02;;
51124;SDS011;37163;55.556;39.108;2022-08-25T14:16:05;28.48;;;15.85;;
51124;SDS011;37163;55.556;39.108;2022-08-25T14:18:46;22.15;;;15.73;;
51124;SDS011;37163;55.556;39.108;2022-08-25T14:21:14;19.85;;;14.63;;
51124;SDS011;37163;55.556;39.108;2022-08-25T14:23:41;21.85;;;15.32;;
51124;SDS011;37163;55.556;39.108;2022-08-25T14:26:07;22.15;;;14.52;;
51124;SDS011;37163;55.556;39.108;2022-08-25T14:28:34;23.10;;;15.68;;
51124;SDS011;37163;55.556;39.108;2022-08-25T14:31:05;22.73;;;17.13;;
51124;SDS011;37163;55.556;39.108;2022-08-25T14:33:37;25.90;;;16.92;;
51124;SDS011;37163;55.556;39.108;2022-08-25T14:36:06;23.85;;;17.38;;
51124;SDS011;37163;55.556;39.108;2022-08-25T14:38:33;27.20;;;17.33;;
51124;SDS011;37163;55.556;39.108;2022-08-25T14:41:04;24.92;;;17.00;;
51124;SDS011;37163;55.556;39.108;2022-08-25T14:43:32;25.65;;;18.33;;
51124;SDS011;37163;55.556;39.108;2022-08-25T14:45:59;22.65;;;16.80;;
51124;SDS011;37163;55.556;39.108;2022-08-25T14:48:30;27.15;;;18.00;;
51124;SDS011;37163;55.556;39.108;2022-08-25T14:50:58;25.35;;;17.38;;
51124;SDS011;37163;55.556;39.108;2022-08-25T14:53:25;30.42;;;20.13;;
51124;SDS011;37163;55.556;39.108;2022-08-25T14:55:52;30.42;;;21.45;;
51124;SDS011;37163;55.556;39.108;2022-08-25T14:58:20;35.15;;;22.77;;
51124;SDS011;37163;55.556;39.108;2022-08-25T15:00:47;32.10;;;22.98;;
51124;SDS011;37163;55.556;39.108;2022-08-25T15:03:16;33.65;;;23.13;;
51124;SDS011;37163;55.556;39.108;2022-08-25T15:05:43;35.75;;;23.42;;
51124;SDS011;37163;55.556;39.108;2022-08-25T15:08:10;35.97;;;23.63;;
51124;SDS011;37163;55.556;39.108;2022-08-25T15:10:55;41.20;;;26.05;;
51124;SDS011;37163;55.556;39.108;2022-08-25T15:13:22;41.05;;;26.02;;
51124;SDS011;37163;55.556;39.108;2022-08-25T15:15:49;37.13;;;24.67;;
51124;SDS011;37163;55.556;39.108;2022-08-25T15:18:15;38.00;;;24.50;;
51124;SDS011;37163;55.556;39.108;2022-08-25T15:20:42;37.92;;;24.63;;
51124;SDS011;37163;55.556;39.108;2022-08-25T15:23:08;33.53;;;23.40;;
51124;SDS011;37163;55.556;39.108;2022-08-25T15:25:34;33.72;;;23.42;;
51124;SDS011;37163;55.556;39.108;2022-08-25T15:28:04;38.35;;;24.40;;
51124;SDS011;37163;55.556;39.108;2022-08-25T15:30:34;36.88;;;24.83;;
51124;SDS011;37163;55.556;39.108;2022-08-25T15:33:01;37.55;;;25.75;;
51124;SDS011;37163;55.556;39.108;2022-08-25T15:35:27;36.72;;;24.33;;
51124;SDS011;37163;55.556;39.108;2022-08-25T15:37:53;42.47;;;28.95;;
51124;SDS011;37163;55.556;39.108;2022-08-25T15:40:20;37.58;;;26.90;;
51124;SDS011;37163;55.556;39.108;2022-08-25T15:42:46;33.75;;;23.88;;
51124;SDS011;37163;55.556;39.108;2022-08-25T15:45:13;31.55;;;21.05;;
51124;SDS011;37163;55.556;39.108;2022-08-25T15:47:39;29.83;;;21.55;;
51124;SDS011;37163;55.556;39.108;2022-08-25T15:50:08;31.33;;;21.45;;
51124;SDS011;37163;55.556;39.108;2022-08-25T15:52:40;27.13;;;20.35;;
51124;SDS011;37163;55.556;39.108;2022-08-25T15:55:07;31.23;;;21.98;;
51124;SDS011;37163;55.556;39.108;2022-08-25T15:57:35;36.95;;;25.67;;
51124;SDS011;37163;55.556;39.108;2022-08-25T16:00:03;35.80;;;24.38;;
51124;SDS011;37163;55.556;39.108;2022-08-25T16:02:31;36.22;;;25.08;;
51124;SDS011;37163;55.556;39.108;2022-08-25T16:04:59;39.42;;;26.98;;